createdAt,value
2022-09-21T00:00:13.141Z,7.83
2022-09-21T00:01:13.241Z,7.89
2022-09-21T00:02:13.231Z,7.79
2022-09-21T00:03:13.129Z,7.86
2022-09-21T00:04:14.433Z,7.82
2022-09-21T00:05:13.199Z,7.89
2022-09-21T00:06:13.220Z,7.83
2022-09-21T00:07:13.166Z,7.86
2022-09-21T00:08:13.112Z,7.87
2022-09-21T00:09:13.809Z,7.85
2022-09-21T00:10:13.231Z,7.92
2022-09-21T00:11:13.126Z,7.87
2022-09-21T00:12:13.181Z,7.92
2022-09-21T00:13:13.083Z,7.83
2022-09-21T00:14:13.015Z,7.83
2022-09-21T00:15:13.109Z,7.82
2022-09-21T00:16:12.909Z,7.87
2022-09-21T00:17:12.931Z,7.93
2022-09-21T00:18:13.035Z,7.79
2022-09-21T00:19:13.100Z,7.85
2022-09-21T00:20:13.062Z,7.80
2022-09-21T00:21:12.848Z,7.83
2022-09-21T00:22:12.926Z,7.75
2022-09-21T00:23:12.839Z,7.87
2022-09-21T00:24:12.961Z,7.79
2022-09-21T00:25:12.817Z,7.79
2022-09-21T00:26:12.878Z,7.85
2022-09-21T00:27:12.798Z,7.92
2022-09-21T00:28:12.767Z,7.80
2022-09-21T00:29:12.854Z,7.80
2022-09-21T00:30:12.915Z,7.83
2022-09-21T00:31:12.834Z,7.80
2022-09-21T00:32:12.748Z,7.80
2022-09-21T00:33:12.797Z,7.82
2022-09-21T00:34:12.795Z,7.83
2022-09-21T00:35:12.789Z,7.82
2022-09-21T00:36:12.700Z,7.82
2022-09-21T00:37:12.770Z,7.79
2022-09-21T00:38:12.632Z,7.85
2022-09-21T00:39:12.803Z,7.79
2022-09-21T00:40:12.915Z,7.83
2022-09-21T00:41:12.670Z,7.80
2022-09-21T00:42:12.703Z,7.82
2022-09-21T00:43:12.673Z,7.83
2022-09-21T00:44:12.713Z,7.77
2022-09-21T00:45:12.598Z,7.85
2022-09-21T00:46:12.580Z,7.80
2022-09-21T00:47:12.637Z,7.80
2022-09-21T00:48:12.591Z,7.79
2022-09-21T00:49:12.738Z,7.83
2022-09-21T00:50:12.638Z,7.80
2022-09-21T00:51:12.529Z,7.87
2022-09-21T00:52:12.649Z,7.77
2022-09-21T00:53:12.694Z,7.80
2022-09-21T00:54:12.526Z,7.79
2022-09-21T00:55:12.540Z,7.80
2022-09-21T00:56:12.413Z,7.83
2022-09-21T00:57:12.490Z,7.82
2022-09-21T00:58:12.425Z,7.77
2022-09-21T00:59:12.437Z,7.80
2022-09-21T01:00:12.448Z,7.74
2022-09-21T01:01:12.808Z,7.83
2022-09-21T01:02:12.515Z,7.75
2022-09-21T01:03:12.419Z,7.71
2022-09-21T01:04:12.418Z,7.75
2022-09-21T01:05:12.372Z,7.68
2022-09-21T01:06:12.417Z,7.63
2022-09-21T01:07:12.350Z,7.67
2022-09-21T01:08:12.661Z,7.68
2022-09-21T01:09:12.294Z,7.57
2022-09-21T01:10:19.847Z,7.52
2022-09-21T01:11:12.276Z,7.50
2022-09-21T01:12:12.215Z,7.63
2022-09-21T01:13:12.229Z,7.68
2022-09-21T01:14:12.213Z,7.57
2022-09-21T01:15:12.152Z,7.58
2022-09-21T01:16:12.157Z,7.57
2022-09-21T01:17:12.082Z,7.58
2022-09-21T01:18:12.101Z,7.53
2022-09-21T01:19:12.059Z,7.35
2022-09-21T01:20:12.052Z,7.35
2022-09-21T01:21:12.033Z,7.40
2022-09-21T01:22:12.112Z,7.39
2022-09-21T01:23:19.675Z,7.35
2022-09-21T01:24:12.014Z,7.34
2022-09-21T01:25:11.988Z,7.31
2022-09-21T01:26:11.975Z,7.25
2022-09-21T01:27:11.953Z,7.23
2022-09-21T01:28:11.974Z,7.17
2022-09-21T01:29:11.926Z,7.15
2022-09-21T01:30:11.934Z,7.17
2022-09-21T01:31:11.947Z,7.10
2022-09-21T01:32:11.893Z,7.12
2022-09-21T01:33:11.891Z,7.06
2022-09-21T01:34:11.870Z,7.09
2022-09-21T01:35:11.883Z,7.03
2022-09-21T01:36:11.850Z,7.03
2022-09-21T01:37:11.832Z,6.98
2022-09-21T01:38:11.823Z,6.92
2022-09-21T01:39:11.823Z,6.99
2022-09-21T01:40:11.848Z,6.92
2022-09-21T01:41:11.808Z,6.77
2022-09-21T01:42:11.779Z,6.91
2022-09-21T01:43:11.779Z,6.81
2022-09-21T01:44:11.753Z,6.80
2022-09-21T01:45:11.776Z,6.70
2022-09-21T01:46:11.734Z,6.69
2022-09-21T01:47:11.731Z,6.67
2022-09-21T01:48:11.709Z,6.70
2022-09-21T01:49:14.563Z,6.69
2022-09-21T01:50:11.710Z,6.59
2022-09-21T01:51:11.713Z,6.61
2022-09-21T01:52:11.664Z,6.61
2022-09-21T01:53:11.652Z,6.49
2022-09-21T01:54:11.640Z,6.51
2022-09-21T01:55:11.633Z,6.48
2022-09-21T01:56:11.639Z,6.48
2022-09-21T01:57:11.627Z,6.41
2022-09-21T01:58:11.618Z,6.37
2022-09-21T01:59:11.584Z,6.41
2022-09-21T02:00:11.596Z,6.36
2022-09-21T02:01:11.608Z,6.31
2022-09-21T02:02:11.711Z,6.36
2022-09-21T02:03:11.573Z,6.27
2022-09-21T02:04:11.526Z,6.17
2022-09-21T02:05:11.533Z,6.18
2022-09-21T02:06:11.539Z,6.14
2022-09-21T02:07:11.515Z,6.18
2022-09-21T02:08:11.481Z,6.09
2022-09-21T02:09:11.478Z,6.03
2022-09-21T02:10:11.478Z,6.08
2022-09-21T02:11:11.447Z,6.11
2022-09-21T02:12:14.624Z,5.97
2022-09-21T02:13:12.440Z,5.94
2022-09-21T02:14:11.410Z,6.00
2022-09-21T02:15:11.435Z,5.93
2022-09-21T02:16:11.421Z,5.86
2022-09-21T02:17:11.379Z,5.89
2022-09-21T02:18:11.380Z,5.78
2022-09-21T02:19:11.351Z,5.85
2022-09-21T02:20:11.359Z,5.78
2022-09-21T02:21:11.342Z,5.86
2022-09-21T02:22:11.341Z,5.82
2022-09-21T02:23:11.306Z,5.68
2022-09-21T02:24:11.294Z,5.76
2022-09-21T02:25:11.285Z,5.71
2022-09-21T02:26:11.290Z,5.65
2022-09-21T02:27:11.293Z,5.78
2022-09-21T02:28:11.248Z,5.60
2022-09-21T02:29:11.251Z,5.72
2022-09-21T02:30:11.224Z,5.74
2022-09-21T02:31:11.254Z,5.68
2022-09-21T02:32:11.198Z,5.75
2022-09-21T02:33:11.220Z,5.71
2022-09-21T02:34:11.178Z,5.67
2022-09-21T02:35:11.169Z,5.67
2022-09-21T02:36:11.182Z,5.86
2022-09-21T02:37:11.158Z,5.76
2022-09-21T02:38:11.152Z,5.86
2022-09-21T02:39:11.131Z,5.81
2022-09-21T02:40:11.130Z,5.82
2022-09-21T02:41:11.131Z,5.79
2022-09-21T02:42:11.104Z,5.81
2022-09-21T02:43:11.095Z,5.79
2022-09-21T02:44:11.062Z,5.74
2022-09-21T02:45:11.070Z,5.74
2022-09-21T02:46:11.154Z,5.74
2022-09-21T02:47:11.025Z,5.72
2022-09-21T02:48:11.020Z,5.75
2022-09-21T02:49:11.003Z,5.71
2022-09-21T02:50:11.015Z,5.60
2022-09-21T02:51:10.990Z,5.72
2022-09-21T02:52:10.970Z,5.60
2022-09-21T02:53:10.961Z,5.63
2022-09-21T02:54:10.964Z,5.63
2022-09-21T02:55:10.953Z,5.51
2022-09-21T02:56:10.923Z,5.60
2022-09-21T02:57:10.925Z,5.57
2022-09-21T02:58:10.903Z,5.58
2022-09-21T02:59:10.888Z,5.64
2022-09-21T03:00:10.879Z,5.57
2022-09-21T03:01:10.901Z,5.60
2022-09-21T03:02:10.882Z,5.60
2022-09-21T03:03:10.856Z,5.64
2022-09-21T03:04:10.831Z,5.65
2022-09-21T03:05:10.822Z,5.61
2022-09-21T03:06:10.831Z,5.61
2022-09-21T03:07:10.816Z,5.67
2022-09-21T03:08:10.784Z,5.60
2022-09-21T03:09:10.784Z,5.60
2022-09-21T03:10:10.761Z,5.60
2022-09-21T03:11:10.773Z,5.63
2022-09-21T03:12:10.738Z,5.60
2022-09-21T03:13:10.727Z,5.53
2022-09-21T03:14:10.731Z,5.57
2022-09-21T03:15:10.736Z,5.51
2022-09-21T03:16:10.767Z,5.53
2022-09-21T03:17:10.700Z,5.56
2022-09-21T03:18:10.692Z,5.51
2022-09-21T03:19:10.676Z,5.48
2022-09-21T03:20:10.663Z,5.49
2022-09-21T03:21:10.650Z,5.36
2022-09-21T03:22:10.643Z,5.40
2022-09-21T03:23:10.613Z,5.31
2022-09-21T03:24:10.633Z,5.39
2022-09-21T03:25:10.586Z,5.27
2022-09-21T03:26:10.580Z,5.27
2022-09-21T03:27:10.579Z,5.18
2022-09-21T03:28:10.571Z,5.15
2022-09-21T03:29:10.550Z,5.20
2022-09-21T03:30:11.404Z,5.13
2022-09-21T03:31:10.629Z,5.17
2022-09-21T03:32:10.512Z,5.04
2022-09-21T03:33:10.537Z,5.03
2022-09-21T03:34:10.487Z,5.07
2022-09-21T03:35:10.477Z,5.10
2022-09-21T03:36:10.467Z,5.07
2022-09-21T03:37:10.475Z,5.02
2022-09-21T03:38:10.436Z,5.02
2022-09-21T03:39:10.445Z,4.96
2022-09-21T03:40:10.459Z,5.00
2022-09-21T03:41:10.409Z,4.94
2022-09-21T03:42:10.415Z,4.88
2022-09-21T03:43:10.386Z,4.92
2022-09-21T03:44:10.391Z,4.91
2022-09-21T03:45:10.377Z,4.77
2022-09-21T03:46:10.412Z,4.84
2022-09-21T03:47:10.340Z,4.91
2022-09-21T03:48:10.330Z,4.78
2022-09-21T03:49:10.360Z,4.84
2022-09-21T03:50:10.454Z,4.77
2022-09-21T03:51:10.311Z,4.72
2022-09-21T03:52:10.285Z,4.66
2022-09-21T03:53:10.275Z,4.72
2022-09-21T03:54:10.263Z,4.62
2022-09-21T03:55:10.275Z,4.66
2022-09-21T03:56:10.243Z,4.66
2022-09-21T03:57:10.238Z,4.65
2022-09-21T03:58:10.216Z,4.62
2022-09-21T03:59:13.908Z,4.66
2022-09-21T04:00:10.220Z,4.69
2022-09-21T04:01:10.219Z,4.63
2022-09-21T04:02:10.173Z,4.60
2022-09-21T04:03:10.181Z,4.60
2022-09-21T04:04:10.153Z,4.67
2022-09-21T04:05:10.177Z,4.62
2022-09-21T04:06:10.125Z,4.63
2022-09-21T04:07:10.118Z,4.62
2022-09-21T04:08:10.132Z,4.59
2022-09-21T04:09:10.116Z,4.51
2022-09-21T04:10:10.082Z,4.59
2022-09-21T04:11:10.071Z,4.58
2022-09-21T04:12:10.059Z,4.60
2022-09-21T04:13:10.074Z,4.47
2022-09-21T04:14:10.038Z,4.52
2022-09-21T04:15:10.061Z,4.51
2022-09-21T04:16:10.090Z,4.47
2022-09-21T04:17:10.026Z,4.52
2022-09-21T04:18:09.993Z,4.50
2022-09-21T04:19:09.982Z,4.45
2022-09-21T04:20:10.006Z,4.55
2022-09-21T04:21:09.984Z,4.48
2022-09-21T04:22:10.021Z,4.45
2022-09-21T04:23:09.973Z,4.47
2022-09-21T04:24:09.928Z,4.45
2022-09-21T04:25:09.914Z,4.51
2022-09-21T04:26:09.914Z,4.48
2022-09-21T04:27:09.891Z,4.55
2022-09-21T04:28:09.900Z,4.50
2022-09-21T04:29:09.890Z,4.50
2022-09-21T04:30:09.855Z,4.50
2022-09-21T04:31:09.873Z,4.51
2022-09-21T04:32:09.843Z,4.51
2022-09-21T04:33:09.830Z,4.55
2022-09-21T04:34:09.833Z,4.51
2022-09-21T04:35:09.821Z,4.54
2022-09-21T04:36:09.793Z,4.52
2022-09-21T04:37:09.798Z,4.50
2022-09-21T04:38:09.779Z,4.50
2022-09-21T04:39:09.756Z,4.50
2022-09-21T04:40:09.833Z,4.55
2022-09-21T04:41:09.778Z,4.47
2022-09-21T04:42:09.718Z,4.40
2022-09-21T04:43:09.718Z,4.50
2022-09-21T04:44:09.726Z,4.51
2022-09-21T04:45:09.689Z,4.48
2022-09-21T04:46:09.713Z,4.52
2022-09-21T04:47:09.667Z,4.51
2022-09-21T04:48:09.653Z,4.50
2022-09-21T04:49:09.663Z,4.52
2022-09-21T04:50:09.640Z,4.44
2022-09-21T04:51:09.620Z,4.54
2022-09-21T04:52:09.608Z,4.44
2022-09-21T04:53:09.615Z,4.47
2022-09-21T04:54:09.606Z,4.50
2022-09-21T04:55:09.577Z,4.59
2022-09-21T04:56:09.569Z,4.59
2022-09-21T04:57:09.555Z,4.50
2022-09-21T04:58:09.541Z,4.52
2022-09-21T04:59:09.558Z,4.58
2022-09-21T05:00:09.520Z,4.63
2022-09-21T05:01:09.568Z,4.55
2022-09-21T05:02:09.507Z,4.55
2022-09-21T05:03:09.486Z,4.70
2022-09-21T05:04:09.495Z,4.58
2022-09-21T05:05:09.511Z,4.75
2022-09-21T05:06:09.452Z,4.77
2022-09-21T05:07:09.444Z,4.85
2022-09-21T05:08:09.475Z,4.86
2022-09-21T05:09:09.460Z,4.91
2022-09-21T05:10:09.404Z,4.99
2022-09-21T05:11:09.581Z,4.97
2022-09-21T05:12:09.383Z,4.99
2022-09-21T05:13:09.393Z,5.06
2022-09-21T05:14:09.373Z,5.07
2022-09-21T05:15:09.385Z,5.03
2022-09-21T05:16:09.377Z,5.10
2022-09-21T05:17:09.329Z,5.00
2022-09-21T05:18:09.316Z,5.03
2022-09-21T05:19:09.356Z,5.12
2022-09-21T05:20:09.322Z,5.04
2022-09-21T05:21:09.283Z,5.04
2022-09-21T05:22:09.331Z,5.15
2022-09-21T05:23:12.562Z,5.21
2022-09-21T05:24:10.245Z,5.15
2022-09-21T05:25:09.270Z,5.25
2022-09-21T05:26:09.253Z,5.33
2022-09-21T05:27:09.245Z,5.30
2022-09-21T05:28:09.200Z,5.31
2022-09-21T05:29:09.190Z,5.42
2022-09-21T05:30:09.179Z,5.40
2022-09-21T05:31:17.794Z,5.48
2022-09-21T05:32:10.183Z,5.40
2022-09-21T05:33:09.151Z,5.57
2022-09-21T05:34:09.155Z,5.56
2022-09-21T05:35:09.143Z,5.61
2022-09-21T05:36:09.111Z,5.56
2022-09-21T05:37:09.132Z,5.67
2022-09-21T05:38:09.133Z,5.68
2022-09-21T05:39:09.079Z,5.78
2022-09-21T05:40:09.108Z,5.78
2022-09-21T05:41:09.070Z,5.78
2022-09-21T05:42:09.042Z,5.99
2022-09-21T05:43:09.068Z,6.03
2022-09-21T05:44:09.039Z,6.06
2022-09-21T05:45:09.012Z,6.04
2022-09-21T05:46:09.034Z,6.12
2022-09-21T05:47:08.988Z,6.28
2022-09-21T05:48:09.016Z,6.27
2022-09-21T05:49:08.987Z,6.38
2022-09-21T05:50:09.016Z,6.40
2022-09-21T05:51:08.940Z,6.44
2022-09-21T05:52:08.966Z,6.62
2022-09-21T05:53:08.920Z,6.67
2022-09-21T05:54:08.931Z,6.64
2022-09-21T05:55:08.894Z,6.67
2022-09-21T05:56:08.900Z,6.67
2022-09-21T05:57:08.895Z,6.81
2022-09-21T05:58:08.863Z,6.76
2022-09-21T05:59:08.876Z,6.87
2022-09-21T06:00:08.843Z,6.80
2022-09-21T06:01:08.893Z,6.84
2022-09-21T06:02:08.883Z,6.80
2022-09-21T06:03:08.807Z,6.94
2022-09-21T06:04:08.858Z,6.94
2022-09-21T06:05:08.785Z,6.95
2022-09-21T06:06:08.770Z,7.03
2022-09-21T06:07:08.759Z,6.97
2022-09-21T06:08:08.757Z,6.94
2022-09-21T06:09:08.761Z,6.99
2022-09-21T06:10:08.723Z,7.09
2022-09-21T06:11:08.713Z,7.09
2022-09-21T06:12:08.701Z,7.12
2022-09-21T06:13:08.704Z,7.12
2022-09-21T06:14:08.723Z,7.15
2022-09-21T06:15:08.739Z,7.20
2022-09-21T06:16:08.654Z,7.17
2022-09-21T06:17:08.643Z,7.25
2022-09-21T06:18:08.630Z,7.25
2022-09-21T06:19:08.621Z,7.27
2022-09-21T06:20:08.643Z,7.25
2022-09-21T06:21:08.596Z,7.23
2022-09-21T06:22:08.584Z,7.24
2022-09-21T06:23:08.576Z,7.30
2022-09-21T06:24:08.567Z,7.25
2022-09-21T06:25:08.575Z,7.35
2022-09-21T06:26:08.545Z,7.39
2022-09-21T06:27:08.529Z,7.35
2022-09-21T06:28:08.514Z,7.40
2022-09-21T06:29:08.522Z,7.37
2022-09-21T06:30:08.520Z,7.35
2022-09-21T06:31:08.527Z,7.43
2022-09-21T06:32:08.475Z,7.30
2022-09-21T06:33:08.459Z,7.43
2022-09-21T06:34:08.549Z,7.40
2022-09-21T06:35:08.458Z,7.40
2022-09-21T06:36:08.423Z,7.40
2022-09-21T06:37:08.430Z,7.43
2022-09-21T06:38:08.414Z,7.46
2022-09-21T06:39:08.390Z,7.60
2022-09-21T06:40:08.450Z,7.49
2022-09-21T06:41:08.368Z,7.49
2022-09-21T06:42:08.358Z,7.60
2022-09-21T06:43:08.342Z,7.57
2022-09-21T06:44:08.346Z,7.68
2022-09-21T06:45:08.364Z,7.77
2022-09-21T06:46:08.377Z,7.67
2022-09-21T06:47:08.316Z,7.77
2022-09-21T06:48:08.286Z,7.79
2022-09-21T06:49:08.273Z,7.80
2022-09-21T06:50:08.297Z,7.89
2022-09-21T06:51:08.250Z,7.97
2022-09-21T06:52:11.076Z,7.95
2022-09-21T06:53:08.227Z,8.10
2022-09-21T06:54:08.302Z,8.08
2022-09-21T06:55:08.275Z,8.34
2022-09-21T06:56:08.386Z,8.45
2022-09-21T06:57:08.206Z,8.47
2022-09-21T06:58:08.172Z,8.47
2022-09-21T06:59:08.217Z,8.48
2022-09-21T07:00:08.170Z,8.52
2022-09-21T07:01:08.493Z,8.68
2022-09-21T07:02:08.480Z,8.62
2022-09-21T07:03:08.324Z,8.62
2022-09-21T07:04:08.105Z,8.61
2022-09-21T07:05:08.110Z,8.53
2022-09-21T07:06:08.108Z,8.48
2022-09-21T07:07:08.085Z,8.44
2022-09-21T07:10:05.139Z,8.45
2022-09-21T07:10:14.347Z,8.44
2022-09-21T07:12:18.279Z,8.55
2022-09-21T07:13:18.236Z,8.47
2022-09-21T07:14:18.239Z,8.37
2022-09-21T07:15:18.347Z,8.41
2022-09-21T07:16:19.025Z,8.48
2022-09-21T07:17:18.303Z,8.47
2022-09-21T07:18:18.187Z,8.52
2022-09-21T07:19:18.170Z,8.45
2022-09-21T07:20:18.163Z,8.45
2022-09-21T07:21:18.185Z,8.47
2022-09-21T07:22:18.134Z,8.55
2022-09-21T07:23:18.139Z,8.53
2022-09-21T07:24:18.110Z,8.48
2022-09-21T07:25:18.099Z,8.47
2022-09-21T07:26:18.112Z,8.50
2022-09-21T07:27:18.080Z,8.47
2022-09-21T07:28:18.070Z,8.45
2022-09-21T07:29:18.057Z,8.56
2022-09-21T07:30:18.045Z,8.65
2022-09-21T07:31:18.137Z,8.74
2022-09-21T07:32:18.044Z,8.71
2022-09-21T07:33:18.037Z,8.84
2022-09-21T07:34:18.004Z,8.91
2022-09-21T07:35:18.020Z,8.84
2022-09-21T07:36:18.009Z,8.94
2022-09-21T07:37:17.967Z,8.98
2022-09-21T07:38:17.952Z,9.04
2022-09-21T07:39:17.973Z,9.05
2022-09-21T07:40:20.818Z,9.15
2022-09-21T07:41:18.954Z,9.20
2022-09-21T07:42:17.910Z,9.21
2022-09-21T07:43:17.898Z,9.23
2022-09-21T07:44:17.904Z,9.36
2022-09-21T07:45:17.875Z,9.35
2022-09-21T07:46:17.890Z,9.46
2022-09-21T07:47:17.862Z,9.47
2022-09-21T07:48:17.853Z,9.58
2022-09-21T07:49:17.847Z,9.64
2022-09-21T07:50:17.819Z,9.58
2022-09-21T07:51:17.808Z,9.56
2022-09-21T07:52:17.816Z,9.57
2022-09-21T07:53:17.792Z,9.51
2022-09-21T07:54:17.782Z,9.40
2022-09-21T07:55:17.761Z,9.48
2022-09-21T07:56:17.863Z,9.53
2022-09-21T07:57:17.746Z,9.57
2022-09-21T07:58:17.732Z,9.61
2022-09-21T07:59:17.726Z,9.68
2022-09-21T08:00:17.709Z,9.74
2022-09-21T08:01:17.813Z,9.79
2022-09-21T08:02:17.800Z,9.79
2022-09-21T08:03:17.687Z,9.90
2022-09-21T08:04:17.675Z,9.97
2022-09-21T08:05:17.659Z,10.02
2022-09-21T08:06:17.643Z,10.12
2022-09-21T08:07:17.679Z,10.05
2022-09-21T08:08:17.635Z,10.01
2022-09-21T08:09:17.604Z,10.05
2022-09-21T08:10:17.592Z,10.08
2022-09-21T08:11:17.585Z,10.07
2022-09-21T08:12:17.573Z,9.94
2022-09-21T08:13:17.584Z,10.14
2022-09-21T08:14:20.138Z,10.20
2022-09-21T08:15:43.938Z,10.29
2022-09-21T08:16:18.583Z,10.32
2022-09-21T08:17:17.530Z,10.29
2022-09-21T08:18:17.518Z,10.36
2022-09-21T08:19:17.492Z,10.53
2022-09-21T08:20:17.517Z,10.63
2022-09-21T08:21:17.474Z,10.64
2022-09-21T08:22:17.491Z,10.79
2022-09-21T08:23:17.449Z,10.73
2022-09-21T08:24:17.435Z,10.71
2022-09-21T08:25:17.428Z,10.79
2022-09-21T08:26:17.439Z,10.86
2022-09-21T08:27:17.422Z,10.86
2022-09-21T08:28:17.404Z,10.92
2022-09-21T08:29:17.393Z,11.02
2022-09-21T08:30:17.375Z,10.86
2022-09-21T08:31:17.411Z,10.96
2022-09-21T08:32:39.446Z,10.88
2022-09-21T08:33:18.339Z,10.79
2022-09-21T08:34:17.326Z,10.73
2022-09-21T08:35:17.338Z,10.89
2022-09-21T08:36:17.320Z,10.96
2022-09-21T08:37:17.333Z,11.03
2022-09-21T08:38:17.280Z,11.04
2022-09-21T08:39:17.273Z,11.10
2022-09-21T08:40:17.364Z,11.15
2022-09-21T08:41:17.311Z,11.19
2022-09-21T08:42:17.259Z,11.14
2022-09-21T08:43:17.223Z,11.03
2022-09-21T08:44:17.217Z,11.11
2022-09-21T08:45:18.572Z,11.17
2022-09-21T08:46:17.240Z,11.10
2022-09-21T08:47:17.179Z,11.07
2022-09-21T08:48:17.185Z,11.14
2022-09-21T08:49:17.156Z,11.07
2022-09-21T08:50:17.144Z,11.11
2022-09-21T08:51:17.134Z,11.07
2022-09-21T08:52:17.377Z,11.09
2022-09-21T08:53:17.108Z,11.02
2022-09-21T08:54:17.101Z,11.02
2022-09-21T08:55:17.869Z,10.99
2022-09-21T08:56:17.081Z,10.91
2022-09-21T08:57:17.085Z,10.92
2022-09-21T08:58:17.056Z,10.99
2022-09-21T08:59:17.046Z,11.03
2022-09-21T09:00:17.040Z,11.03
2022-09-21T09:01:17.097Z,11.03
2022-09-21T09:02:17.070Z,11.02
2022-09-21T09:03:17.002Z,11.02
2022-09-21T09:04:16.995Z,11.06
2022-09-21T09:05:17.000Z,11.04
2022-09-21T09:06:16.964Z,11.00
2022-09-21T09:07:17.036Z,11.07
2022-09-21T09:08:16.954Z,11.04
2022-09-21T09:09:16.945Z,11.10
2022-09-21T09:10:16.917Z,11.21
2022-09-21T09:11:16.935Z,11.33
2022-09-21T09:12:16.917Z,11.27
2022-09-21T09:13:16.907Z,11.39
2022-09-21T09:14:16.896Z,11.46
2022-09-21T09:15:16.867Z,11.40
2022-09-21T09:16:16.911Z,11.51
2022-09-21T09:17:16.841Z,11.49
2022-09-21T09:18:16.832Z,11.62
2022-09-21T09:19:16.834Z,11.69
2022-09-21T09:20:16.803Z,11.79
2022-09-21T09:21:26.345Z,11.78
2022-09-21T09:22:17.786Z,11.83
2022-09-21T09:23:16.778Z,11.88
2022-09-21T09:24:16.798Z,11.94
2022-09-21T09:25:16.772Z,11.79
2022-09-21T09:26:16.782Z,11.88
2022-09-21T09:27:16.740Z,11.96
2022-09-21T09:28:16.721Z,12.09
2022-09-21T09:29:16.732Z,12.07
2022-09-21T09:30:16.702Z,12.09
2022-09-21T09:31:16.738Z,12.14
2022-09-21T09:32:16.676Z,12.07
2022-09-21T09:33:16.682Z,12.12
2022-09-21T09:34:16.672Z,12.12
2022-09-21T09:35:16.673Z,12.10
2022-09-21T09:36:16.640Z,12.12
2022-09-21T09:37:16.627Z,12.10
2022-09-21T09:38:16.607Z,12.13
2022-09-21T09:39:16.634Z,12.07
2022-09-21T09:40:16.655Z,12.16
2022-09-21T09:41:16.579Z,12.09
2022-09-21T09:42:16.567Z,12.02
2022-09-21T09:43:16.574Z,11.91
2022-09-21T09:44:16.563Z,12.02
2022-09-21T09:45:16.785Z,11.88
2022-09-21T09:46:16.703Z,11.85
2022-09-21T09:47:16.571Z,11.94
2022-09-21T09:48:16.529Z,11.96
2022-09-21T09:49:16.521Z,11.90
2022-09-21T09:50:16.509Z,11.95
2022-09-21T09:51:16.501Z,11.85
2022-09-21T09:52:16.497Z,11.88
2022-09-21T09:53:16.498Z,11.79
2022-09-21T09:54:16.479Z,11.78
2022-09-21T09:55:16.492Z,11.78
2022-09-21T09:56:16.544Z,11.86
2022-09-21T09:57:16.590Z,11.80
2022-09-21T09:58:16.618Z,11.88
2022-09-21T09:59:16.493Z,12.01
2022-09-21T10:00:16.570Z,12.05
2022-09-21T10:01:16.475Z,12.17
2022-09-21T10:02:16.401Z,12.09
2022-09-21T10:03:16.363Z,11.96
2022-09-21T10:04:16.359Z,11.95
2022-09-21T10:05:16.321Z,11.95
2022-09-21T10:06:16.322Z,11.99
2022-09-21T10:07:16.314Z,11.99
2022-09-21T10:08:16.284Z,12.12
2022-09-21T10:09:16.286Z,12.31
2022-09-21T10:10:16.275Z,12.49
2022-09-21T10:11:16.242Z,12.42
2022-09-21T10:12:16.257Z,12.41
2022-09-21T10:13:16.279Z,12.42
2022-09-21T10:14:16.254Z,12.28
2022-09-21T10:15:16.219Z,12.34
2022-09-21T10:16:16.275Z,12.31
2022-09-21T10:17:16.175Z,12.17
2022-09-21T10:18:16.164Z,12.13
2022-09-21T10:19:16.149Z,12.04
2022-09-21T10:20:16.159Z,11.94
2022-09-21T10:21:16.138Z,11.85
2022-09-21T10:22:16.575Z,11.88
2022-09-21T10:23:16.132Z,11.83
2022-09-21T10:24:16.093Z,11.83
2022-09-21T10:25:16.087Z,11.88
2022-09-21T10:26:16.072Z,11.98
2022-09-21T10:27:16.098Z,12.04
2022-09-21T10:28:16.065Z,12.13
2022-09-21T10:29:16.041Z,11.98
2022-09-21T10:30:16.025Z,11.91
2022-09-21T10:31:16.049Z,11.96
2022-09-21T10:32:16.025Z,11.98
2022-09-21T10:33:16.020Z,12.09
2022-09-21T10:34:15.982Z,12.05
2022-09-21T10:35:15.994Z,12.16
2022-09-21T10:36:15.960Z,12.16
2022-09-21T10:37:15.951Z,12.09
2022-09-21T10:38:21.166Z,12.07
2022-09-21T10:39:16.923Z,12.12
2022-09-21T10:40:15.973Z,12.04
2022-09-21T10:41:15.922Z,11.99
2022-09-21T10:42:15.912Z,12.02
2022-09-21T10:43:15.917Z,12.20
2022-09-21T10:44:15.900Z,12.24
2022-09-21T10:45:15.869Z,12.41
2022-09-21T10:46:15.929Z,12.49
2022-09-21T10:47:16.824Z,12.68
2022-09-21T10:48:15.837Z,12.70
2022-09-21T10:49:15.818Z,12.70
2022-09-21T10:50:15.826Z,12.83
2022-09-21T10:51:15.796Z,12.67
2022-09-21T10:52:15.783Z,12.75
2022-09-21T10:53:15.770Z,12.75
2022-09-21T10:54:15.761Z,12.74
2022-09-21T10:55:15.765Z,12.74
2022-09-21T10:56:17.206Z,12.78
2022-09-21T10:57:15.747Z,12.79
2022-09-21T10:58:15.726Z,12.79
2022-09-21T10:59:15.714Z,12.86
2022-09-21T11:00:15.719Z,12.82
2022-09-21T11:01:16.025Z,12.90
2022-09-21T11:02:15.780Z,12.89
2022-09-21T11:03:15.685Z,12.97
2022-09-21T11:04:15.690Z,13.03
2022-09-21T11:05:15.640Z,12.89
2022-09-21T11:06:15.635Z,12.86
2022-09-21T11:07:15.623Z,12.83
2022-09-21T11:08:15.629Z,12.72
2022-09-21T11:09:15.599Z,12.83
2022-09-21T11:10:15.620Z,12.71
2022-09-21T11:11:15.583Z,12.74
2022-09-21T11:12:15.564Z,12.70
2022-09-21T11:13:15.571Z,12.68
2022-09-21T11:14:15.569Z,12.70
2022-09-21T11:15:15.527Z,12.79
2022-09-21T11:16:15.629Z,12.95
2022-09-21T11:17:15.541Z,13.14
2022-09-21T11:18:15.517Z,13.38
2022-09-21T11:19:15.506Z,13.45
2022-09-21T11:20:15.484Z,13.44
2022-09-21T11:21:15.471Z,13.51
2022-09-21T11:22:15.460Z,13.55
2022-09-21T11:23:15.472Z,13.55
2022-09-21T11:24:15.468Z,13.55
2022-09-21T11:25:15.418Z,13.55
2022-09-21T11:26:15.421Z,13.48
2022-09-21T11:27:15.403Z,13.41
2022-09-21T11:28:15.409Z,13.19
2022-09-21T11:29:15.514Z,13.05
2022-09-21T11:30:15.384Z,12.97
2022-09-21T11:31:15.424Z,13.03
2022-09-21T11:32:15.367Z,12.97
2022-09-21T11:33:15.332Z,12.83
2022-09-21T11:34:15.455Z,12.87
2022-09-21T11:35:15.309Z,12.92
2022-09-21T11:36:15.300Z,12.79
2022-09-21T11:37:15.288Z,12.86
2022-09-21T11:38:15.292Z,12.77
2022-09-21T11:39:15.281Z,12.85
2022-09-21T11:40:15.344Z,12.86
2022-09-21T11:41:15.240Z,12.90
2022-09-21T11:42:15.229Z,13.07
2022-09-21T11:43:15.235Z,13.22
2022-09-21T11:44:18.133Z,13.42
2022-09-21T11:45:15.240Z,13.49
2022-09-21T11:46:15.258Z,13.49
2022-09-21T11:47:15.199Z,13.59
2022-09-21T11:48:15.201Z,13.63
2022-09-21T11:49:15.176Z,13.63
2022-09-21T11:50:31.635Z,13.88
2022-09-21T11:51:16.128Z,13.79
2022-09-21T11:52:15.139Z,13.78
2022-09-21T11:53:15.120Z,13.69
2022-09-21T11:54:15.098Z,13.62
2022-09-21T11:55:15.107Z,13.67
2022-09-21T11:56:15.077Z,13.49
2022-09-21T11:57:15.069Z,13.44
2022-09-21T11:58:15.064Z,13.39
2022-09-21T11:59:15.081Z,13.36
2022-09-21T12:00:15.057Z,13.32
2022-09-21T12:01:15.030Z,13.33
2022-09-21T12:02:15.192Z,13.25
2022-09-21T12:03:16.330Z,13.14
2022-09-21T12:04:15.024Z,13.12
2022-09-21T12:05:14.978Z,12.97
2022-09-21T12:06:14.968Z,12.75
2022-09-21T12:07:14.965Z,12.71
2022-09-21T12:08:14.949Z,12.75
2022-09-21T12:09:14.954Z,12.70
2022-09-21T12:10:15.007Z,12.74
2022-09-21T12:11:14.914Z,12.75
2022-09-21T12:12:14.907Z,12.64
2022-09-21T12:13:14.903Z,12.60
2022-09-21T12:14:14.896Z,12.59
2022-09-21T12:15:14.968Z,12.62
2022-09-21T12:16:14.890Z,12.71
2022-09-21T12:17:14.841Z,12.68
2022-09-21T12:18:14.848Z,12.65
2022-09-21T12:19:14.837Z,12.79
2022-09-21T12:20:15.026Z,12.87
2022-09-21T12:21:14.799Z,12.89
2022-09-21T12:22:14.787Z,12.96
2022-09-21T12:23:15.453Z,12.97
2022-09-21T12:24:14.784Z,12.93
2022-09-21T12:25:14.770Z,12.92
2022-09-21T12:26:14.820Z,12.89
2022-09-21T12:27:14.730Z,12.95
2022-09-21T12:28:14.718Z,12.86
2022-09-21T12:29:14.715Z,12.93
2022-09-21T12:30:14.794Z,12.77
2022-09-21T12:31:14.875Z,12.78
2022-09-21T12:32:14.681Z,12.83
2022-09-21T12:33:14.682Z,12.85
2022-09-21T12:34:14.655Z,12.72
2022-09-21T12:35:14.677Z,12.72
2022-09-21T12:36:14.673Z,12.72
2022-09-21T12:37:14.619Z,12.79
2022-09-21T12:38:14.610Z,12.75
2022-09-21T12:39:14.619Z,12.75
2022-09-21T12:40:14.830Z,12.83
2022-09-21T12:41:14.599Z,12.78
2022-09-21T12:42:14.577Z,12.89
2022-09-21T12:43:14.556Z,12.86
2022-09-21T12:44:14.558Z,13.03
2022-09-21T12:45:14.559Z,13.15
2022-09-21T12:46:14.598Z,13.33
2022-09-21T12:47:14.508Z,13.54
2022-09-21T12:48:14.504Z,13.63
2022-09-21T12:49:14.503Z,13.84
2022-09-21T12:50:14.602Z,13.79
2022-09-21T12:51:14.497Z,13.77
2022-09-21T12:52:14.476Z,13.69
2022-09-21T12:53:14.451Z,13.62
2022-09-21T12:54:14.442Z,13.54
2022-09-21T12:55:16.974Z,13.51
2022-09-21T12:56:14.451Z,13.33
2022-09-21T12:57:38.327Z,13.25
2022-09-21T12:58:16.364Z,13.12
2022-09-21T12:59:14.382Z,13.05
2022-09-21T13:00:14.432Z,13.10
2022-09-21T13:01:14.433Z,12.97
2022-09-21T13:02:14.586Z,13.11
2022-09-21T13:03:14.355Z,13.04
2022-09-21T13:04:14.326Z,12.97
2022-09-21T13:05:14.316Z,12.96
2022-09-21T13:06:14.323Z,13.08
2022-09-21T13:07:14.306Z,13.01
2022-09-21T13:08:14.301Z,12.89
2022-09-21T13:09:14.617Z,12.89
2022-09-21T13:10:14.263Z,12.77